Time;durP1;ratioP1;P1;durP2;ratioP2;P2;SDS_P1;SDS_P2;PMS_P1;PMS_P2;Temp;Humidity;BMP_temperature;BMP_pressure;BME280_temperature;BME280_humidity;BME280_pressure;Samples;Min_cycle;Max_cycle;Signal;HPM_P1;HPM_P2
2022/09/27 00:01:33;;;;;;;;;;;13.40;99.90;;;;;;5096321;28;19908;-80
2022/09/27 00:03:59;;;;;;;;;;;13.30;99.90;;;;;;5096160;28;19908;-78
2022/09/27 00:06:26;;;;;;;;;;;13.40;99.90;;;;;;5096299;28;19908;-79
2022/09/27 00:08:52;;;;;;;;;;;13.40;99.90;;;;;;5094621;28;20384;-77
2022/09/27 00:11:21;;;;;;;;;;;13.50;99.90;;;;;;5095986;28;20287;-80
2022/09/27 00:13:46;;;;;;;;;;;13.60;99.90;;;;;;5095996;28;20276;-79
2022/09/27 00:16:12;;;;;;;;;;;13.50;99.90;;;;;;5095934;28;19908;-81
2022/09/27 00:18:37;;;;;;;;;;;13.60;99.90;;;;;;5096261;28;19955;-76
2022/09/27 00:21:07;;;;;;;;;;;13.70;99.90;;;;;;5096060;28;19912;-78
2022/09/27 00:23:33;;;;;;;;;;;13.70;99.90;;;;;;5095930;28;20343;-80
2022/09/27 00:25:58;;;;;;;;;;;13.70;99.90;;;;;;5095723;28;20020;-79
2022/09/27 00:28:24;;;;;;;;;;;13.70;99.90;;;;;;5094258;28;20335;-79
2022/09/27 00:30:50;;;;;;;;;;;13.70;99.90;;;;;;5095637;28;19912;-77
2022/09/27 00:33:16;;;;;;;;;;;13.70;99.90;;;;;;5095909;28;19908;-77
2022/09/27 00:35:42;;;;;;;;;;;13.70;99.90;;;;;;5095523;28;20395;-78
2022/09/27 00:38:07;;;;;;;;;;;13.80;99.90;;;;;;5095539;28;19953;-80
2022/09/27 00:40:33;;;;;;;;;;;13.80;99.90;;;;;;5095343;28;19915;-80
2022/09/27 00:42:59;;;;;;;;;;;13.80;99.90;;;;;;5095370;28;20338;-79
2022/09/27 00:45:24;;;;;;;;;;;13.90;99.90;;;;;;5095426;28;19915;-78
2022/09/27 00:47:55;;;;;;;;;;;13.90;99.90;;;;;;5095382;28;20038;-78
2022/09/27 00:50:24;;;;;;;;;;;13.90;99.90;;;;;;5095569;28;20388;-80
2022/09/27 00:53:03;;;;;;;;;;;14.00;99.90;;;;;;5095359;28;19997;-79
2022/09/27 00:55:32;;;;;;;;;;;14.00;99.90;;;;;;5095255;28;19908;-77
2022/09/27 00:57:57;;;;;;;;;;;14.10;99.90;;;;;;5095281;28;19908;-78
2022/09/27 01:00:23;;;;;;;;;;;14.20;99.90;;;;;;5094598;28;20379;-77
2022/09/27 01:02:50;;;;;;;;;;;14.20;99.90;;;;;;5092989;28;19908;-79
2022/09/27 01:05:17;;;;;;;;;;;14.10;99.90;;;;;;5094902;28;19999;-78
2022/09/27 01:07:43;;;;;;;;;;;14.10;99.90;;;;;;5094795;28;19915;-77
2022/09/27 01:10:09;;;;;;;;;;;13.90;99.90;;;;;;5095132;28;19908;-79
2022/09/27 01:12:35;;;;;;;;;;;14.00;99.90;;;;;;5094788;28;20372;-80
2022/09/27 01:15:18;;;;;;;;;;;14.10;99.90;;;;;;5094782;28;19912;-78
2022/09/27 01:18:02;;;;;;;;;;;14.10;99.90;;;;;;5095198;28;19965;-77
2022/09/27 01:20:36;;;;;;;;;;;14.00;99.90;;;;;;5094630;28;19908;-78
2022/09/27 01:23:11;;;;;;;;;;;13.80;99.90;;;;;;5094744;28;19908;-78
2022/09/27 01:25:47;;;;;;;;;;;13.70;99.90;;;;;;5094564;28;19919;-78
2022/09/27 01:28:15;;;;;;;;;;;13.50;99.90;;;;;;5094845;28;19948;-79
2022/09/27 01:30:44;;;;;;;;;;;13.50;99.90;;;;;;5094438;28;19957;-80
2022/09/27 01:33:09;;;;;;;;;;;13.40;99.90;;;;;;5094586;28;19948;-79
2022/09/27 01:35:38;;;;;;;;;;;13.40;99.90;;;;;;5093036;28;19947;-78
2022/09/27 01:38:06;;;;;;;;;;;13.50;99.90;;;;;;5094268;28;19914;-79
2022/09/27 01:40:39;;;;;;;;;;;13.40;99.90;;;;;;5094480;28;19909;-79
2022/09/27 01:43:04;;;;;;;;;;;13.40;99.90;;;;;;5092755;28;19915;-80
2022/09/27 01:45:35;;;;;;;;;;;13.20;99.90;;;;;;5094169;28;19908;-80
2022/09/27 01:48:08;;;;;;;;;;;13.20;99.90;;;;;;5094288;28;20368;-78
2022/09/27 01:50:43;;;;;;;;;;;13.00;99.90;;;;;;5094621;28;20121;-78
2022/09/27 01:53:15;;;;;;;;;;;13.00;99.90;;;;;;5094084;28;19991;-78
2022/09/27 01:55:44;;;;;;;;;;;12.80;99.90;;;;;;5093043;28;20217;-78
2022/09/27 01:58:16;;;;;;;;;;;12.80;99.90;;;;;;5094397;28;19998;-79
2022/09/27 02:00:44;;;;;;;;;;;12.80;99.90;;;;;;5094039;28;20260;-80
2022/09/27 02:03:19;;;;;;;;;;;12.90;99.90;;;;;;5092716;28;19914;-77
2022/09/27 02:05:47;;;;;;;;;;;12.90;99.90;;;;;;5094528;28;19930;-78
2022/09/27 02:08:28;;;;;;;;;;;13.00;99.90;;;;;;5094061;28;19912;-78
2022/09/27 02:10:56;;;;;;;;;;;12.90;99.90;;;;;;5093887;28;19909;-78
2022/09/27 02:13:24;;;;;;;;;;;12.90;99.90;;;;;;5093066;28;20387;-78
2022/09/27 02:16:11;;;;;;;;;;;12.80;99.90;;;;;;5093830;28;19908;-79
2022/09/27 02:19:00;;;;;;;;;;;12.80;99.90;;;;;;5094196;28;20011;-77
2022/09/27 02:21:30;;;;;;;;;;;12.70;99.90;;;;;;5085307;28;20365;-80
2022/09/27 02:23:58;;;;;;;;;;;12.80;99.90;;;;;;5093699;28;19908;-78
2022/09/27 02:26:31;;;;;;;;;;;12.70;99.90;;;;;;5093728;28;19991;-77
2022/09/27 02:29:04;;;;;;;;;;;12.80;99.90;;;;;;5093715;28;20020;-79
2022/09/27 02:31:29;;;;;;;;;;;12.80;99.90;;;;;;5093860;28;19951;-78
2022/09/27 02:33:58;;;;;;;;;;;12.70;99.90;;;;;;5093629;28;19943;-77
2022/09/27 02:36:24;;;;;;;;;;;12.70;99.90;;;;;;5093666;28;20326;-80
2022/09/27 02:38:50;;;;;;;;;;;12.80;99.90;;;;;;5092248;28;19966;-78
2022/09/27 02:41:16;;;;;;;;;;;12.70;99.90;;;;;;5093616;28;19908;-77
2022/09/27 02:43:43;;;;;;;;;;;12.70;99.90;;;;;;5093660;28;20041;-77
2022/09/27 02:46:24;;;;;;;;;;;12.70;99.90;;;;;;5093500;28;20053;-79
2022/09/27 02:48:50;;;;;;;;;;;12.70;99.90;;;;;;5093758;28;20369;-79
2022/09/27 02:51:34;;;;;;;;;;;12.70;99.90;;;;;;5093599;28;19926;-77
2022/09/27 02:54:05;;;;;;;;;;;12.80;99.90;;;;;;5093453;28;19958;-79
2022/09/27 02:56:50;;;;;;;;;;;12.80;99.90;;;;;;5093986;28;20001;-79
2022/09/27 02:59:34;;;;;;;;;;;12.90;99.90;;;;;;5093535;28;19912;-79
2022/09/27 03:02:07;;;;;;;;;;;13.00;99.90;;;;;;5093454;28;19916;-76
2022/09/27 03:04:32;;;;;;;;;;;12.90;99.90;;;;;;5093710;28;19908;-77
2022/09/27 03:06:59;;;;;;;;;;;12.90;99.90;;;;;;5093322;28;19916;-79
2022/09/27 03:09:28;;;;;;;;;;;13.00;99.90;;;;;;5093344;28;19914;-77
2022/09/27 03:11:53;;;;;;;;;;;13.00;99.90;;;;;;5093295;28;20401;-80
2022/09/27 03:14:19;;;;;;;;;;;13.00;99.90;;;;;;5093294;28;19915;-78
2022/09/27 03:16:45;;;;;;;;;;;13.00;99.90;;;;;;5093377;28;19985;-77
2022/09/27 03:19:10;;;;;;;;;;;12.90;99.90;;;;;;5093296;28;20360;-80
2022/09/27 03:21:36;;;;;;;;;;;12.90;99.90;;;;;;5091874;28;19977;-79
2022/09/27 03:24:02;;;;;;;;;;;12.90;99.90;;;;;;5095621;28;19914;-77
2022/09/27 03:26:27;;;;;;;;;;;12.90;99.90;;;;;;5097097;28;19908;-80
2022/09/27 03:28:53;;;;;;;;;;;12.90;99.90;;;;;;5096862;28;20017;-77
2022/09/27 03:31:19;;;;;;;;;;;12.90;99.90;;;;;;5095494;28;20431;-76
2022/09/27 03:33:44;;;;;;;;;;;12.90;99.90;;;;;;5096799;28;19915;-79
2022/09/27 03:36:10;;;;;;;;;;;12.80;99.90;;;;;;5096652;28;19908;-78
2022/09/27 03:38:36;;;;;;;;;;;12.80;99.90;;;;;;5096597;28;19912;-80
2022/09/27 03:41:02;;;;;;;;;;;12.80;99.90;;;;;;5096598;28;19916;-77
2022/09/27 03:43:28;;;;;;;;;;;12.70;99.90;;;;;;5096721;28;19908;-80
2022/09/27 03:45:53;;;;;;;;;;;12.70;99.90;;;;;;5096455;28;20280;-78
2022/09/27 03:48:19;;;;;;;;;;;12.80;99.90;;;;;;5095183;28;20287;-77
2022/09/27 03:50:44;;;;;;;;;;;12.80;99.90;;;;;;5096746;28;19920;-77
2022/09/27 03:53:10;;;;;;;;;;;12.70;99.90;;;;;;5096435;28;20352;-78
2022/09/27 03:55:35;;;;;;;;;;;12.70;99.90;;;;;;5095089;28;19915;-78
2022/09/27 03:58:01;;;;;;;;;;;12.60;99.90;;;;;;5096192;28;20360;-78
2022/09/27 04:00:27;;;;;;;;;;;12.40;99.90;;;;;;5096668;28;19912;-80
2022/09/27 04:02:53;;;;;;;;;;;12.40;99.90;;;;;;5096516;28;20375;-81
2022/09/27 04:05:18;;;;;;;;;;;12.30;99.90;;;;;;5096160;28;19915;-79
2022/09/27 04:07:45;;;;;;;;;;;12.10;99.90;;;;;;5096059;28;19908;-77
2022/09/27 04:10:11;;;;;;;;;;;12.10;99.90;;;;;;5096066;28;19908;-80
2022/09/27 04:12:38;;;;;;;;;;;12.10;99.90;;;;;;5096347;28;19919;-78
2022/09/27 04:15:04;;;;;;;;;;;12.10;99.90;;;;;;5096256;28;20020;-77
2022/09/27 04:17:30;;;;;;;;;;;12.10;99.90;;;;;;5095871;28;19915;-78
2022/09/27 04:19:56;;;;;;;;;;;12.20;99.90;;;;;;5095775;28;19912;-77
2022/09/27 04:22:22;;;;;;;;;;;12.20;99.90;;;;;;5095804;28;19933;-76
2022/09/27 04:24:48;;;;;;;;;;;12.20;99.90;;;;;;5095784;28;19916;-79
2022/09/27 04:27:14;;;;;;;;;;;12.20;99.90;;;;;;5095756;28;19934;-76
2022/09/27 04:29:44;;;;;;;;;;;12.20;99.90;;;;;;5095640;28;19908;-80
2022/09/27 04:32:10;;;;;;;;;;;12.20;99.90;;;;;;5094314;28;19908;-77
2022/09/27 04:37:19;;;;;;;;;;;12.10;99.90;;;;;;5095251;28;19958;-78
2022/09/27 04:39:45;;;;;;;;;;;12.20;99.90;;;;;;5095337;28;20364;-76
2022/09/27 04:42:11;;;;;;;;;;;12.30;99.90;;;;;;5095637;28;19908;-80
2022/09/27 04:44:36;;;;;;;;;;;12.20;99.90;;;;;;5095377;28;19912;-80
2022/09/27 04:47:02;;;;;;;;;;;12.20;99.90;;;;;;5095350;28;19908;-78
2022/09/27 04:49:27;;;;;;;;;;;12.20;99.90;;;;;;5095003;28;19953;-79
2022/09/27 04:51:53;;;;;;;;;;;12.30;99.90;;;;;;5096006;28;19934;-79
2022/09/27 04:54:19;;;;;;;;;;;12.30;99.90;;;;;;5095204;28;20391;-77
2022/09/27 04:56:44;;;;;;;;;;;12.40;99.90;;;;;;5095380;28;19908;-77
2022/09/27 04:59:10;;;;;;;;;;;12.30;99.90;;;;;;5094994;28;19912;-79
2022/09/27 05:01:35;;;;;;;;;;;12.20;99.90;;;;;;5095042;28;19915;-78
2022/09/27 05:04:01;;;;;;;;;;;12.30;99.90;;;;;;5095119;28;19908;-79
2022/09/27 05:06:27;;;;;;;;;;;12.40;99.90;;;;;;5094918;28;20001;-77
2022/09/27 05:08:52;;;;;;;;;;;12.40;99.90;;;;;;5094914;28;19915;-78
2022/09/27 05:11:18;;;;;;;;;;;12.30;99.90;;;;;;5094866;28;20023;-77
2022/09/27 05:13:43;;;;;;;;;;;12.20;99.90;;;;;;5094990;28;19908;-79
2022/09/27 05:16:10;;;;;;;;;;;12.00;99.90;;;;;;5094843;28;20395;-78
2022/09/27 05:18:35;;;;;;;;;;;11.90;99.90;;;;;;5094634;28;19912;-76
2022/09/27 05:21:01;;;;;;;;;;;11.90;99.90;;;;;;5094758;28;19908;-76
2022/09/27 05:23:26;;;;;;;;;;;11.90;99.90;;;;;;5094604;28;19912;-76
2022/09/27 05:25:54;;;;;;;;;;;11.80;99.90;;;;;;5094580;28;20352;-80
2022/09/27 05:28:20;;;;;;;;;;;11.70;99.90;;;;;;5094616;28;19908;-79
2022/09/27 05:30:45;;;;;;;;;;;11.60;99.90;;;;;;5094604;28;20050;-80
2022/09/27 05:33:11;;;;;;;;;;;11.70;99.90;;;;;;5094424;28;19908;-79
2022/09/27 05:35:39;;;;;;;;;;;11.70;99.90;;;;;;5094455;28;20364;-78
2022/09/27 05:38:04;;;;;;;;;;;11.80;99.90;;;;;;5092973;28;19919;-78
2022/09/27 05:40:30;;;;;;;;;;;11.80;99.90;;;;;;5094350;28;19908;-78
2022/09/27 05:42:55;;;;;;;;;;;11.80;99.90;;;;;;5094174;28;19998;-75
2022/09/27 05:45:22;;;;;;;;;;;11.90;99.90;;;;;;5094011;28;20253;-78
2022/09/27 05:47:57;;;;;;;;;;;12.00;99.90;;;;;;5094289;28;19912;-79
2022/09/27 05:50:24;;;;;;;;;;;12.10;99.90;;;;;;5092655;28;20033;-79
2022/09/27 05:52:49;;;;;;;;;;;12.10;99.90;;;;;;5094668;28;20372;-77
2022/09/27 05:55:15;;;;;;;;;;;12.30;99.90;;;;;;5094143;28;19915;-77
2022/09/27 05:57:41;;;;;;;;;;;12.30;99.90;;;;;;5094212;28;19908;-79
2022/09/27 06:00:07;;;;;;;;;;;12.30;99.90;;;;;;5094094;28;19912;-79
2022/09/27 06:02:33;;;;;;;;;;;12.40;99.90;;;;;;5093923;28;19908;-80
2022/09/27 06:04:59;;;;;;;;;;;12.30;99.90;;;;;;5093896;28;19915;-80
2022/09/27 06:07:25;;;;;;;;;;;12.20;99.90;;;;;;5094152;28;19908;-79
2022/09/27 06:09:50;;;;;;;;;;;12.20;99.90;;;;;;5092600;28;19908;-78
2022/09/27 06:12:19;;;;;;;;;;;12.20;99.90;;;;;;5092765;28;19912;-76
2022/09/27 06:14:44;;;;;;;;;;;12.20;99.90;;;;;;5093831;28;20002;-76
2022/09/27 06:17:10;;;;;;;;;;;12.20;99.90;;;;;;5093838;28;19969;-78
2022/09/27 06:19:35;;;;;;;;;;;12.30;99.90;;;;;;5093737;28;19912;-80
2022/09/27 06:22:01;;;;;;;;;;;12.30;99.90;;;;;;5093764;28;20387;-80
2022/09/27 06:24:27;;;;;;;;;;;12.30;99.90;;;;;;5093796;28;19998;-77
2022/09/27 06:26:52;;;;;;;;;;;12.40;99.90;;;;;;5093683;28;20097;-77
2022/09/27 06:29:18;;;;;;;;;;;12.30;99.90;;;;;;5094112;28;19915;-78
2022/09/27 06:31:43;;;;;;;;;;;12.40;99.90;;;;;;5093809;28;20308;-77
2022/09/27 06:34:09;;;;;;;;;;;12.40;99.90;;;;;;5093617;28;20024;-77
2022/09/27 06:36:34;;;;;;;;;;;12.40;99.90;;;;;;5093779;28;19908;-79
2022/09/27 06:39:00;;;;;;;;;;;12.40;99.90;;;;;;5093520;28;19912;-78
2022/09/27 06:41:26;;;;;;;;;;;12.50;99.90;;;;;;5093593;28;20281;-76
2022/09/27 06:43:52;;;;;;;;;;;12.50;99.90;;;;;;5093630;28;19908;-79
2022/09/27 06:46:17;;;;;;;;;;;12.50;99.90;;;;;;5093523;28;19908;-78
2022/09/27 06:48:43;;;;;;;;;;;12.70;99.90;;;;;;5093435;28;19961;-79
2022/09/27 06:51:08;;;;;;;;;;;12.90;99.90;;;;;;5093604;28;19920;-78
2022/09/27 06:53:34;;;;;;;;;;;12.80;99.90;;;;;;5093452;28;19923;-77
2022/09/27 06:56:00;;;;;;;;;;;12.80;99.90;;;;;;5093416;28;20269;-80
2022/09/27 07:01:10;;;;;;;;;;;12.80;99.90;;;;;;5097396;28;19915;-80
2022/09/27 07:03:40;;;;;;;;;;;12.90;99.90;;;;;;5097324;28;20003;-79
2022/09/27 07:06:07;;;;;;;;;;;13.00;99.90;;;;;;5095989;28;19908;-77
2022/09/27 07:08:34;;;;;;;;;;;13.10;99.90;;;;;;5097244;28;19960;-80
2022/09/27 07:11:01;;;;;;;;;;;13.20;99.90;;;;;;5097206;28;19915;-77
2022/09/27 07:13:33;;;;;;;;;;;13.30;99.90;;;;;;5097397;28;19912;-78
2022/09/27 07:15:59;;;;;;;;;;;13.60;99.90;;;;;;5095584;28;19915;-80
2022/09/27 07:18:24;;;;;;;;;;;14.00;99.90;;;;;;5095755;28;19912;-77
2022/09/27 07:20:50;;;;;;;;;;;14.00;99.90;;;;;;5097068;28;20392;-77
2022/09/27 07:23:16;;;;;;;;;;;13.90;99.90;;;;;;5097052;28;19908;-78
2022/09/27 07:25:42;;;;;;;;;;;13.70;99.90;;;;;;5096872;28;20007;-79
2022/09/27 07:28:11;;;;;;;;;;;13.80;99.90;;;;;;5097017;28;20322;-78
2022/09/27 07:30:37;;;;;;;;;;;13.90;99.90;;;;;;5096897;28;20020;-81
2022/09/27 07:33:03;;;;;;;;;;;14.00;99.90;;;;;;5096853;28;20378;-77
2022/09/27 07:35:29;;;;;;;;;;;14.10;99.90;;;;;;5096962;28;20045;-79
2022/09/27 07:37:55;;;;;;;;;;;14.40;99.90;;;;;;5096660;28;19940;-80
2022/09/27 07:40:21;;;;;;;;;;;14.50;99.90;;;;;;5096669;28;19908;-78
2022/09/27 07:42:46;;;;;;;;;;;14.50;99.90;;;;;;5096585;28;20488;-80
2022/09/27 07:45:12;;;;;;;;;;;14.30;99.90;;;;;;5096527;28;19915;-77
2022/09/27 07:47:38;;;;;;;;;;;14.10;99.90;;;;;;5096399;28;19908;-79
2022/09/27 07:50:05;;;;;;;;;;;14.20;99.90;;;;;;5096243;28;19920;-80
2022/09/27 07:52:37;;;;;;;;;;;14.60;99.90;;;;;;5096563;28;20279;-75
2022/09/27 07:55:03;;;;;;;;;;;14.80;99.90;;;;;;5096756;28;19912;-79
2022/09/27 07:57:28;;;;;;;;;;;14.80;99.90;;;;;;5096388;28;19915;-80
2022/09/27 07:59:54;;;;;;;;;;;14.80;99.90;;;;;;5096293;28;19912;-79
2022/09/27 08:02:20;;;;;;;;;;;15.00;99.90;;;;;;5096328;28;19908;-79
2022/09/27 08:04:46;;;;;;;;;;;15.50;99.90;;;;;;5096161;28;20327;-77
2022/09/27 08:07:11;;;;;;;;;;;15.50;99.90;;;;;;5096553;28;19915;-78
2022/09/27 08:09:37;;;;;;;;;;;15.90;99.90;;;;;;5095337;28;20007;-78
2022/09/27 08:12:03;;;;;;;;;;;17.30;99.90;;;;;;5095909;28;19908;-80
2022/09/27 08:14:29;;;;;;;;;;;18.30;99.90;;;;;;5096012;28;20253;-80
2022/09/27 08:16:54;;;;;;;;;;;18.70;99.90;;;;;;5095894;28;19916;-77
2022/09/27 08:19:20;;;;;;;;;;;17.80;99.90;;;;;;5096080;28;19955;-79
2022/09/27 08:21:46;;;;;;;;;;;17.50;99.90;;;;;;5097406;28;20257;-81
2022/09/27 08:24:13;;;;;;;;;;;17.80;99.90;;;;;;5096156;28;19908;-77
2022/09/27 08:26:38;;;;;;;;;;;18.10;99.90;;;;;;5095768;28;20321;-79
2022/09/27 08:29:04;;;;;;;;;;;17.80;99.90;;;;;;5095684;28;19908;-79
2022/09/27 08:31:29;;;;;;;;;;;17.40;99.90;;;;;;5094564;28;19908;-77
2022/09/27 08:33:56;;;;;;;;;;;17.90;99.90;;;;;;5095657;28;20373;-78
2022/09/27 08:36:23;;;;;;;;;;;18.80;99.90;;;;;;5095812;28;20399;-77
2022/09/27 08:38:49;;;;;;;;;;;20.40;99.90;;;;;;5095453;28;20376;-78
2022/09/27 08:41:20;;;;;;;;;;;21.50;99.90;;;;;;5095707;28;19915;-79
2022/09/27 08:43:48;;;;;;;;;;;22.20;96.90;;;;;;5095410;28;20336;-82
2022/09/27 08:46:14;;;;;;;;;;;22.10;95.30;;;;;;5094008;28;19908;-76
2022/09/27 08:48:41;;;;;;;;;;;22.50;94.30;;;;;;5095453;28;20448;-79
2022/09/27 08:51:10;;;;;;;;;;;22.90;92.20;;;;;;5094804;28;19931;-80
2022/09/27 08:53:40;;;;;;;;;;;22.90;91.50;;;;;;5095260;28;19987;-78
2022/09/27 08:56:07;;;;;;;;;;;23.30;91.70;;;;;;5095061;28;20435;-79
2022/09/27 08:58:37;;;;;;;;;;;25.20;88.70;;;;;;5095040;28;20006;-79
2022/09/27 09:01:07;;;;;;;;;;;26.20;80.90;;;;;;5095167;28;19908;-80
2022/09/27 09:03:35;;;;;;;;;;;26.70;73.70;;;;;;5095326;28;19908;-77
2022/09/27 09:06:19;;;;;;;;;;;27.40;74.90;;;;;;5095264;28;19914;-75
2022/09/27 09:08:45;;;;;;;;;;;28.30;66.80;;;;;;5094938;28;19915;-80
2022/09/27 09:14:24;;;;;;;;;;;29.30;59.60;;;;;;5094933;28;19915;-78
2022/09/27 09:17:08;;;;;;;;;;;29.40;58.40;;;;;;5094876;28;19908;-78
2022/09/27 09:19:33;;;;;;;;;;;29.50;56.70;;;;;;5094638;28;20287;-79
2022/09/27 09:22:27;;;;;;;;;;;30.10;55.60;;;;;;5094370;28;19908;-80
2022/09/27 09:25:08;;;;;;;;;;;29.90;54.60;;;;;;5095307;28;19908;-75
2022/09/27 09:27:34;;;;;;;;;;;30.40;53.30;;;;;;5094601;28;19908;-75
2022/09/27 09:30:04;;;;;;;;;;;31.10;53.40;;;;;;5094566;28;19908;-76
2022/09/27 09:32:38;;;;;;;;;;;31.50;51.60;;;;;;5094530;28;19908;-77
2022/09/27 09:35:10;;;;;;;;;;;32.30;52.20;;;;;;5094536;28;19973;-76
2022/09/27 09:37:39;;;;;;;;;;;32.00;49.50;;;;;;5093111;28;20340;-80
2022/09/27 09:40:11;;;;;;;;;;;31.80;49.00;;;;;;5094426;28;19908;-78
2022/09/27 09:42:44;;;;;;;;;;;30.10;50.70;;;;;;5094361;28;19929;-77
2022/09/27 09:45:15;;;;;;;;;;;30.40;49.80;;;;;;5092939;28;19954;-79
2022/09/27 09:47:53;;;;;;;;;;;28.80;50.30;;;;;;5094254;28;19912;-75
2022/09/27 09:50:19;;;;;;;;;;;27.20;53.90;;;;;;5094292;28;19920;-79
2022/09/27 09:52:47;;;;;;;;;;;26.80;54.50;;;;;;5092845;28;19973;-79
2022/09/27 09:55:16;;;;;;;;;;;26.30;54.20;;;;;;5094127;28;19912;-81
2022/09/27 09:57:48;;;;;;;;;;;25.70;55.70;;;;;;5094376;28;19915;-80
2022/09/27 10:00:14;;;;;;;;;;;25.60;54.90;;;;;;5094311;28;19957;-78
2022/09/27 10:02:41;;;;;;;;;;;25.20;55.50;;;;;;5094131;28;19908;-79
2022/09/27 10:05:11;;;;;;;;;;;25.00;56.60;;;;;;5094073;28;19933;-76
2022/09/27 10:07:38;;;;;;;;;;;24.40;57.70;;;;;;5094443;28;20038;-75
2022/09/27 10:10:04;;;;;;;;;;;22.90;59.90;;;;;;5094433;28;19912;-78
2022/09/27 10:12:30;;;;;;;;;;;21.70;63.20;;;;;;5093896;28;19915;-75
2022/09/27 10:14:57;;;;;;;;;;;21.80;65.40;;;;;;5093750;28;19912;-77
2022/09/27 10:17:25;;;;;;;;;;;21.60;65.60;;;;;;5094098;28;19912;-76
2022/09/27 10:19:53;;;;;;;;;;;21.30;66.80;;;;;;5094173;28;19908;-77
2022/09/27 10:22:28;;;;;;;;;;;20.80;69.50;;;;;;5093824;28;20024;-75
2022/09/27 10:24:54;;;;;;;;;;;20.90;69.50;;;;;;5094330;28;19957;-78
2022/09/27 10:27:20;;;;;;;;;;;21.90;69.10;;;;;;5093974;28;19915;-76
2022/09/27 10:29:45;;;;;;;;;;;24.80;62.80;;;;;;5093807;28;19912;-76
2022/09/27 10:32:23;;;;;;;;;;;24.90;60.50;;;;;;5093704;28;19916;-77
2022/09/27 10:34:50;;;;;;;;;;;24.20;60.70;;;;;;5097290;28;19966;-78
2022/09/27 10:37:17;;;;;;;;;;;23.80;62.30;;;;;;5096567;28;20288;-78
2022/09/27 10:39:44;;;;;;;;;;;22.70;63.90;;;;;;5097768;28;19908;-79
2022/09/27 10:42:32;;;;;;;;;;;21.80;66.20;;;;;;5097898;28;19951;-77
2022/09/27 10:45:18;;;;;;;;;;;21.00;68.80;;;;;;5097700;28;19912;-79
2022/09/27 10:47:43;;;;;;;;;;;20.30;72.00;;;;;;5097496;28;19915;-80
2022/09/27 10:50:14;;;;;;;;;;;20.00;75.20;;;;;;5097377;28;19920;-80
2022/09/27 10:52:41;;;;;;;;;;;19.60;76.30;;;;;;5097705;28;19915;-81
2022/09/27 10:55:15;;;;;;;;;;;19.40;77.80;;;;;;5097425;28;19912;-77
2022/09/27 10:57:47;;;;;;;;;;;20.10;79.90;;;;;;5080845;28;19923;-79
2022/09/27 11:00:22;;;;;;;;;;;20.20;78.40;;;;;;5085196;28;19926;-79
2022/09/27 11:03:18;;;;;;;;;;;20.80;77.80;;;;;;5086904;28;19912;-80
2022/09/27 11:05:43;;;;;;;;;;;21.60;75.90;;;;;;5076161;28;19908;-79
2022/09/27 11:08:17;;;;;;;;;;;21.60;75.00;;;;;;5087015;28;20295;-82
2022/09/27 11:10:42;;;;;;;;;;;21.10;74.40;;;;;;5090158;28;19940;-79
2022/09/27 11:13:09;;;;;;;;;;;21.30;74.50;;;;;;5086758;28;19944;-81
2022/09/27 11:15:39;;;;;;;;;;;22.00;72.80;;;;;;5085379;28;19908;-81
2022/09/27 11:18:10;;;;;;;;;;;22.50;72.00;;;;;;5086533;28;20367;-79
2022/09/27 11:20:49;;;;;;;;;;;22.40;70.90;;;;;;5087345;28;19908;-82
2022/09/27 11:23:15;;;;;;;;;;;22.00;72.40;;;;;;5084803;28;19909;-78
2022/09/27 11:25:50;;;;;;;;;;;21.00;72.60;;;;;;5086179;28;19916;-78
2022/09/27 11:28:21;;;;;;;;;;;20.60;76.20;;;;;;5085881;28;19912;-78
2022/09/27 11:31:06;;;;;;;;;;;20.50;75.10;;;;;;5084428;28;19912;-82
2022/09/27 11:33:37;;;;;;;;;;;20.40;75.80;;;;;;5087656;28;19995;-79
2022/09/27 11:36:20;;;;;;;;;;;20.30;76.20;;;;;;5087717;28;19908;-80
2022/09/27 11:38:49;;;;;;;;;;;20.00;76.10;;;;;;5086006;28;19916;-78
2022/09/27 11:41:29;;;;;;;;;;;19.90;78.20;;;;;;5092240;28;20402;-79
2022/09/27 11:44:04;;;;;;;;;;;19.80;79.30;;;;;;5095063;28;19909;-81
2022/09/27 11:46:37;;;;;;;;;;;19.60;80.40;;;;;;5096672;28;20352;-78
2022/09/27 11:49:03;;;;;;;;;;;19.40;80.60;;;;;;5096460;28;19962;-79
2022/09/27 11:51:28;;;;;;;;;;;19.40;83.80;;;;;;5096017;28;19920;-79
2022/09/27 11:54:04;;;;;;;;;;;19.20;87.00;;;;;;5096537;28;19912;-77
2022/09/27 11:56:49;;;;;;;;;;;19.00;87.10;;;;;;5094725;28;19994;-78
2022/09/27 11:59:26;;;;;;;;;;;18.80;87.60;;;;;;5096291;28;19908;-78
2022/09/27 12:01:52;;;;;;;;;;;18.90;89.10;;;;;;5096649;28;19908;-79
2022/09/27 12:04:38;;;;;;;;;;;18.90;90.10;;;;;;5096099;28;19912;-78
2022/09/27 12:07:07;;;;;;;;;;;19.20;90.70;;;;;;5096176;28;19916;-79
2022/09/27 12:09:34;;;;;;;;;;;19.30;90.90;;;;;;5096020;28;19919;-77
2022/09/27 12:12:08;;;;;;;;;;;19.60;90.10;;;;;;5094824;28;19908;-80
2022/09/27 12:14:37;;;;;;;;;;;19.80;90.20;;;;;;5094480;28;20376;-79
2022/09/27 12:17:05;;;;;;;;;;;19.90;89.70;;;;;;5095914;28;19916;-80
2022/09/27 12:19:34;;;;;;;;;;;19.80;89.30;;;;;;5096100;28;20265;-79
2022/09/27 12:22:03;;;;;;;;;;;19.60;91.00;;;;;;5096031;28;19915;-78
2022/09/27 12:24:29;;;;;;;;;;;19.60;91.00;;;;;;5096499;28;19915;-78
2022/09/27 12:26:58;;;;;;;;;;;19.40;91.10;;;;;;5095848;28;20357;-81
2022/09/27 12:29:26;;;;;;;;;;;19.40;92.40;;;;;;5095637;28;19912;-81
2022/09/27 12:31:58;;;;;;;;;;;19.70;91.90;;;;;;5095937;28;20357;-82
2022/09/27 12:34:30;;;;;;;;;;;19.80;90.90;;;;;;5095631;28;19916;-79
2022/09/27 12:37:22;;;;;;;;;;;20.10;91.60;;;;;;5095578;28;19908;-82
2022/09/27 12:39:54;;;;;;;;;;;19.80;91.20;;;;;;5072168;28;19912;-81
2022/09/27 12:42:32;;;;;;;;;;;19.90;92.30;;;;;;5095745;28;19915;-79
2022/09/27 12:44:57;;;;;;;;;;;19.60;92.60;;;;;;5095445;28;19912;-81
2022/09/27 12:47:23;;;;;;;;;;;19.10;93.40;;;;;;5095449;28;19916;-81
2022/09/27 12:49:48;;;;;;;;;;;18.90;95.80;;;;;;5095260;28;19920;-81
2022/09/27 12:52:22;;;;;;;;;;;19.00;96.70;;;;;;5095557;28;19920;-77
2022/09/27 12:54:50;;;;;;;;;;;19.10;97.20;;;;;;5095430;28;19918;-78
2022/09/27 12:57:39;;;;;;;;;;;18.80;97.60;;;;;;5094679;28;20380;-81
2022/09/27 13:00:11;;;;;;;;;;;18.90;99.00;;;;;;5066198;28;19912;-78
2022/09/27 13:02:59;;;;;;;;;;;18.70;99.60;;;;;;5093830;28;20335;-82
2022/09/27 13:05:51;;;;;;;;;;;18.90;99.90;;;;;;5095301;28;19991;-77
2022/09/27 13:08:17;;;;;;;;;;;18.80;99.40;;;;;;5094675;28;19961;-81
2022/09/27 13:10:48;;;;;;;;;;;18.60;99.90;;;;;;5095102;28;19912;-82
2022/09/27 13:13:15;;;;;;;;;;;18.70;99.90;;;;;;5094905;28;19909;-77
2022/09/27 13:15:43;;;;;;;;;;;18.70;99.90;;;;;;5094806;28;20372;-81
2022/09/27 13:18:28;;;;;;;;;;;18.70;99.90;;;;;;5094872;28;20346;-78
2022/09/27 13:20:54;;;;;;;;;;;18.90;99.90;;;;;;5094926;28;19912;-79
2022/09/27 13:23:20;;;;;;;;;;;18.90;99.90;;;;;;5093436;28;19958;-80
2022/09/27 13:25:46;;;;;;;;;;;18.60;99.90;;;;;;5095248;28;19912;-77
2022/09/27 13:28:34;;;;;;;;;;;18.40;99.90;;;;;;5094552;28;19931;-76
2022/09/27 13:31:05;;;;;;;;;;;18.40;99.90;;;;;;5092980;28;19908;-78
2022/09/27 13:33:44;;;;;;;;;;;18.50;99.90;;;;;;5094518;28;19915;-77
2022/09/27 13:36:16;;;;;;;;;;;18.50;99.90;;;;;;5094479;28;19912;-79
2022/09/27 13:38:50;;;;;;;;;;;18.50;99.90;;;;;;5094453;28;19908;-79
2022/09/27 13:41:17;;;;;;;;;;;18.80;99.90;;;;;;5094452;28;19909;-79
2022/09/27 13:43:58;;;;;;;;;;;19.20;99.90;;;;;;5094345;28;19943;-78
2022/09/27 13:46:25;;;;;;;;;;;19.30;99.00;;;;;;5094719;28;19981;-79
2022/09/27 13:48:59;;;;;;;;;;;19.40;99.90;;;;;;5094163;28;19912;-78
2022/09/27 13:51:44;;;;;;;;;;;19.40;99.20;;;;;;5093785;28;19920;-78
2022/09/27 13:54:28;;;;;;;;;;;19.40;99.90;;;;;;5094152;28;19951;-80
2022/09/27 13:56:54;;;;;;;;;;;19.40;99.90;;;;;;5094122;28;19912;-81
2022/09/27 13:59:42;;;;;;;;;;;19.20;99.90;;;;;;5094063;28;19908;-79
2022/09/27 14:02:07;;;;;;;;;;;19.30;99.90;;;;;;5094372;28;19912;-80
2022/09/27 14:04:40;;;;;;;;;;;19.10;99.90;;;;;;5094083;28;19908;-77
2022/09/27 14:07:09;;;;;;;;;;;19.20;99.90;;;;;;5093741;28;19995;-77
2022/09/27 14:09:37;;;;;;;;;;;19.50;99.90;;;;;;5093471;28;19912;-80
2022/09/27 14:12:09;;;;;;;;;;;19.40;99.90;;;;;;5094196;28;20439;-81
2022/09/27 14:14:35;;;;;;;;;;;18.90;99.90;;;;;;5094029;28;19908;-80
2022/09/27 14:17:01;;;;;;;;;;;18.80;99.90;;;;;;5093958;28;19912;-79
2022/09/27 14:19:27;;;;;;;;;;;18.30;99.90;;;;;;5093859;28;19908;-80
2022/09/27 14:21:54;;;;;;;;;;;18.20;99.90;;;;;;5093966;28;19908;-79
2022/09/27 14:24:42;;;;;;;;;;;18.10;99.90;;;;;;5093839;28;19909;-80
2022/09/27 14:27:12;;;;;;;;;;;18.10;99.90;;;;;;5093836;28;20308;-78
2022/09/27 14:29:40;;;;;;;;;;;18.20;99.90;;;;;;5093688;28;19923;-78
2022/09/27 14:32:08;;;;;;;;;;;18.30;99.90;;;;;;5093718;28;19945;-80
2022/09/27 14:34:34;;;;;;;;;;;18.10;99.90;;;;;;5093683;28;19917;-80
2022/09/27 14:39:44;;;;;;;;;;;18.00;99.90;;;;;;5093574;28;19915;-81